sensor_id;sensor_type;location;lat;lon;timestamp;temperature;humidity
31046;DHT22;17711;54.018;9.300;2023-08-08T00:02:18;15.80;99.90
31046;DHT22;17711;54.018;9.300;2023-08-08T00:04:46;15.90;99.90
31046;DHT22;17711;54.018;9.300;2023-08-08T00:07:14;15.90;99.90
31046;DHT22;17711;54.018;9.300;2023-08-08T00:09:43;15.80;99.90
31046;DHT22;17711;54.018;9.300;2023-08-08T00:12:11;15.80;99.90
31046;DHT22;17711;54.018;9.300;2023-08-08T00:14:39;15.80;99.90
31046;DHT22;17711;54.018;9.300;2023-08-08T00:17:08;15.70;99.90
31046;DHT22;17711;54.018;9.300;2023-08-08T00:19:38;15.70;99.90
31046;DHT22;17711;54.018;9.300;2023-08-08T00:22:06;15.60;99.90
31046;DHT22;17711;54.018;9.300;2023-08-08T00:24:34;15.60;99.90
31046;DHT22;17711;54.018;9.300;2023-08-08T00:27:03;15.70;99.90
31046;DHT22;17711;54.018;9.300;2023-08-08T00:29:31;15.60;99.90
31046;DHT22;17711;54.018;9.300;2023-08-08T00:32:00;15.60;99.90
31046;DHT22;17711;54.018;9.300;2023-08-08T00:34:28;15.60;99.90
31046;DHT22;17711;54.018;9.300;2023-08-08T00:36:58;15.60;99.90
31046;DHT22;17711;54.018;9.300;2023-08-08T00:39:26;15.60;99.90
31046;DHT22;17711;54.018;9.300;2023-08-08T00:41:55;15.60;99.90
31046;DHT22;17711;54.018;9.300;2023-08-08T00:44:23;15.60;99.90
31046;DHT22;17711;54.018;9.300;2023-08-08T00:46:52;15.60;99.90
31046;DHT22;17711;54.018;9.300;2023-08-08T00:49:20;15.60;99.90
31046;DHT22;17711;54.018;9.300;2023-08-08T00:51:49;15.70;99.90
31046;DHT22;17711;54.018;9.300;2023-08-08T00:54:19;15.70;99.90
31046;DHT22;17711;54.018;9.300;2023-08-08T00:56:48;15.70;99.90
31046;DHT22;17711;54.018;9.300;2023-08-08T00:59:16;15.60;99.90
31046;DHT22;17711;54.018;9.300;2023-08-08T01:01:46;15.70;99.90
31046;DHT22;17711;54.018;9.300;2023-08-08T01:04:15;15.60;99.90
31046;DHT22;17711;54.018;9.300;2023-08-08T01:06:47;15.70;99.90
31046;DHT22;17711;54.018;9.300;2023-08-08T01:09:20;15.70;99.90
31046;DHT22;17711;54.018;9.300;2023-08-08T01:11:48;15.80;99.90
31046;DHT22;17711;54.018;9.300;2023-08-08T01:14:17;15.80;99.90
31046;DHT22;17711;54.018;9.300;2023-08-08T01:16:45;15.80;99.90
31046;DHT22;17711;54.018;9.300;2023-08-08T01:19:15;15.80;99.90
31046;DHT22;17711;54.018;9.300;2023-08-08T01:21:47;15.90;99.90
31046;DHT22;17711;54.018;9.300;2023-08-08T01:24:19;15.90;99.90
31046;DHT22;17711;54.018;9.300;2023-08-08T01:26:49;15.90;99.90
31046;DHT22;17711;54.018;9.300;2023-08-08T01:29:18;15.80;99.90
31046;DHT22;17711;54.018;9.300;2023-08-08T01:31:47;15.90;99.90
31046;DHT22;17711;54.018;9.300;2023-08-08T01:34:15;15.90;99.90
31046;DHT22;17711;54.018;9.300;2023-08-08T01:36:45;15.80;99.90
31046;DHT22;17711;54.018;9.300;2023-08-08T01:39:17;15.80;99.90
31046;DHT22;17711;54.018;9.300;2023-08-08T01:41:47;15.80;99.90
31046;DHT22;17711;54.018;9.300;2023-08-08T01:44:16;15.80;99.90
31046;DHT22;17711;54.018;9.300;2023-08-08T01:46:45;15.80;99.90
31046;DHT22;17711;54.018;9.300;2023-08-08T01:49:13;15.80;99.90
31046;DHT22;17711;54.018;9.300;2023-08-08T01:51:42;15.80;99.90
31046;DHT22;17711;54.018;9.300;2023-08-08T01:54:10;15.80;99.90
31046;DHT22;17711;54.018;9.300;2023-08-08T01:56:38;15.80;99.90
31046;DHT22;17711;54.018;9.300;2023-08-08T01:59:08;15.80;99.90
31046;DHT22;17711;54.018;9.300;2023-08-08T02:01:39;15.80;99.90
31046;DHT22;17711;54.018;9.300;2023-08-08T02:04:08;15.90;99.90
31046;DHT22;17711;54.018;9.300;2023-08-08T02:06:36;16.00;99.90
31046;DHT22;17711;54.018;9.300;2023-08-08T02:09:05;16.00;99.90
31046;DHT22;17711;54.018;9.300;2023-08-08T02:11:34;16.00;99.90
31046;DHT22;17711;54.018;9.300;2023-08-08T02:14:02;16.00;99.90
31046;DHT22;17711;54.018;9.300;2023-08-08T02:16:32;16.00;99.90
31046;DHT22;17711;54.018;9.300;2023-08-08T02:19:01;16.00;99.90
31046;DHT22;17711;54.018;9.300;2023-08-08T02:21:30;16.00;99.90
31046;DHT22;17711;54.018;9.300;2023-08-08T02:23:58;16.00;99.90
31046;DHT22;17711;54.018;9.300;2023-08-08T02:26:26;16.00;99.90
31046;DHT22;17711;54.018;9.300;2023-08-08T02:28:55;16.00;99.90
31046;DHT22;17711;54.018;9.300;2023-08-08T02:31:23;16.00;99.90
31046;DHT22;17711;54.018;9.300;2023-08-08T02:33:53;16.10;99.90
31046;DHT22;17711;54.018;9.300;2023-08-08T02:36:22;16.10;99.90
31046;DHT22;17711;54.018;9.300;2023-08-08T02:38:51;16.20;99.90
31046;DHT22;17711;54.018;9.300;2023-08-08T02:41:20;16.10;99.90
31046;DHT22;17711;54.018;9.300;2023-08-08T02:43:49;16.10;99.90
31046;DHT22;17711;54.018;9.300;2023-08-08T02:46:17;16.10;99.90
31046;DHT22;17711;54.018;9.300;2023-08-08T02:48:46;16.10;99.90
31046;DHT22;17711;54.018;9.300;2023-08-08T02:51:15;16.10;99.90
31046;DHT22;17711;54.018;9.300;2023-08-08T02:53:44;16.20;99.90
31046;DHT22;17711;54.018;9.300;2023-08-08T02:56:12;16.20;99.90
31046;DHT22;17711;54.018;9.300;2023-08-08T02:58:40;16.20;99.90
31046;DHT22;17711;54.018;9.300;2023-08-08T03:01:08;16.30;99.90
31046;DHT22;17711;54.018;9.300;2023-08-08T03:03:37;16.30;99.90
31046;DHT22;17711;54.018;9.300;2023-08-08T03:06:05;16.20;99.90
31046;DHT22;17711;54.018;9.300;2023-08-08T03:08:35;16.30;99.90
31046;DHT22;17711;54.018;9.300;2023-08-08T03:11:04;16.20;99.90
31046;DHT22;17711;54.018;9.300;2023-08-08T03:13:32;16.30;99.90
31046;DHT22;17711;54.018;9.300;2023-08-08T03:16:00;16.20;99.90
31046;DHT22;17711;54.018;9.300;2023-08-08T03:18:29;16.20;99.90
31046;DHT22;17711;54.018;9.300;2023-08-08T03:20:57;16.20;99.90
31046;DHT22;17711;54.018;9.300;2023-08-08T03:23:26;16.20;99.90
31046;DHT22;17711;54.018;9.300;2023-08-08T03:25:56;16.20;99.90
31046;DHT22;17711;54.018;9.300;2023-08-08T03:28:24;16.30;99.90
31046;DHT22;17711;54.018;9.300;2023-08-08T03:30:53;16.20;99.90
31046;DHT22;17711;54.018;9.300;2023-08-08T03:33:21;16.20;99.90
31046;DHT22;17711;54.018;9.300;2023-08-08T03:35:50;16.20;99.90
31046;DHT22;17711;54.018;9.300;2023-08-08T03:38:18;16.20;99.90
31046;DHT22;17711;54.018;9.300;2023-08-08T03:40:46;16.20;99.90
31046;DHT22;17711;54.018;9.300;2023-08-08T03:43:16;16.20;99.90
31046;DHT22;17711;54.018;9.300;2023-08-08T03:45:45;16.20;99.90
31046;DHT22;17711;54.018;9.300;2023-08-08T03:48:14;16.10;99.90
31046;DHT22;17711;54.018;9.300;2023-08-08T03:50:42;16.10;99.90
31046;DHT22;17711;54.018;9.300;2023-08-08T03:53:11;16.10;99.90
31046;DHT22;17711;54.018;9.300;2023-08-08T03:55:39;16.10;99.90
31046;DHT22;17711;54.018;9.300;2023-08-08T03:58:07;16.10;99.90
31046;DHT22;17711;54.018;9.300;2023-08-08T04:00:37;16.10;99.90
31046;DHT22;17711;54.018;9.300;2023-08-08T04:03:13;16.00;99.90
31046;DHT22;17711;54.018;9.300;2023-08-08T04:05:43;15.90;99.90
31046;DHT22;17711;54.018;9.300;2023-08-08T04:08:13;15.80;99.90
31046;DHT22;17711;54.018;9.300;2023-08-08T04:10:41;15.70;99.90
31046;DHT22;17711;54.018;9.300;2023-08-08T04:13:09;15.60;99.90
31046;DHT22;17711;54.018;9.300;2023-08-08T04:15:39;15.60;99.90
31046;DHT22;17711;54.018;9.300;2023-08-08T04:18:07;15.60;99.90
31046;DHT22;17711;54.018;9.300;2023-08-08T04:20:36;15.60;99.90
31046;DHT22;17711;54.018;9.300;2023-08-08T04:23:04;15.50;99.90
31046;DHT22;17711;54.018;9.300;2023-08-08T04:25:33;15.50;99.90
31046;DHT22;17711;54.018;9.300;2023-08-08T04:28:01;15.40;99.90
31046;DHT22;17711;54.018;9.300;2023-08-08T04:30:30;15.40;99.90
31046;DHT22;17711;54.018;9.300;2023-08-08T04:33:00;15.30;99.90
31046;DHT22;17711;54.018;9.300;2023-08-08T04:35:28;15.30;99.90
31046;DHT22;17711;54.018;9.300;2023-08-08T04:37:57;15.30;99.90
31046;DHT22;17711;54.018;9.300;2023-08-08T04:40:25;15.20;99.90
31046;DHT22;17711;54.018;9.300;2023-08-08T04:42:53;15.30;99.90
31046;DHT22;17711;54.018;9.300;2023-08-08T04:45:22;15.30;99.90
31046;DHT22;17711;54.018;9.300;2023-08-08T04:47:50;15.30;99.90
31046;DHT22;17711;54.018;9.300;2023-08-08T04:50:20;15.30;99.90
31046;DHT22;17711;54.018;9.300;2023-08-08T04:52:48;15.20;99.90
31046;DHT22;17711;54.018;9.300;2023-08-08T04:55:17;15.20;99.90
31046;DHT22;17711;54.018;9.300;2023-08-08T04:57:46;15.20;99.90
31046;DHT22;17711;54.018;9.300;2023-08-08T05:00:14;15.20;99.90
31046;DHT22;17711;54.018;9.300;2023-08-08T05:02:42;15.20;99.90
31046;DHT22;17711;54.018;9.300;2023-08-08T05:05:11;15.20;99.90
31046;DHT22;17711;54.018;9.300;2023-08-08T05:07:41;15.30;99.90
31046;DHT22;17711;54.018;9.300;2023-08-08T05:10:09;15.30;99.90
31046;DHT22;17711;54.018;9.300;2023-08-08T05:12:38;15.40;99.90
31046;DHT22;17711;54.018;9.300;2023-08-08T05:15:06;15.40;99.90
31046;DHT22;17711;54.018;9.300;2023-08-08T05:17:35;15.40;99.90
31046;DHT22;17711;54.018;9.300;2023-08-08T05:20:04;15.50;99.90
31046;DHT22;17711;54.018;9.300;2023-08-08T05:22:33;15.50;99.90
31046;DHT22;17711;54.018;9.300;2023-08-08T05:25:03;15.60;99.90
31046;DHT22;17711;54.018;9.300;2023-08-08T05:27:31;15.70;99.90
31046;DHT22;17711;54.018;9.300;2023-08-08T05:30:00;15.70;99.90
31046;DHT22;17711;54.018;9.300;2023-08-08T05:32:28;15.80;99.90
31046;DHT22;17711;54.018;9.300;2023-08-08T05:34:57;15.80;99.90
31046;DHT22;17711;54.018;9.300;2023-08-08T05:37:27;15.80;99.90
31046;DHT22;17711;54.018;9.300;2023-08-08T05:39:55;15.90;99.90
31046;DHT22;17711;54.018;9.300;2023-08-08T05:42:25;15.90;99.90
31046;DHT22;17711;54.018;9.300;2023-08-08T05:44:54;15.90;99.90
31046;DHT22;17711;54.018;9.300;2023-08-08T05:47:22;16.00;99.90
31046;DHT22;17711;54.018;9.300;2023-08-08T05:49:50;16.10;99.90
31046;DHT22;17711;54.018;9.300;2023-08-08T05:52:19;16.10;99.90
31046;DHT22;17711;54.018;9.300;2023-08-08T05:54:48;16.10;99.90
31046;DHT22;17711;54.018;9.300;2023-08-08T05:57:16;16.10;99.90
31046;DHT22;17711;54.018;9.300;2023-08-08T05:59:46;16.00;99.90
31046;DHT22;17711;54.018;9.300;2023-08-08T06:02:14;16.00;99.90
31046;DHT22;17711;54.018;9.300;2023-08-08T06:04:43;16.00;99.90
31046;DHT22;17711;54.018;9.300;2023-08-08T06:07:12;16.00;99.90
31046;DHT22;17711;54.018;9.300;2023-08-08T06:09:41;16.00;99.90
31046;DHT22;17711;54.018;9.300;2023-08-08T06:12:09;16.10;99.90
31046;DHT22;17711;54.018;9.300;2023-08-08T06:14:37;16.10;99.90
31046;DHT22;17711;54.018;9.300;2023-08-08T06:17:07;16.10;99.90
31046;DHT22;17711;54.018;9.300;2023-08-08T06:19:36;16.10;99.90
31046;DHT22;17711;54.018;9.300;2023-08-08T06:22:04;16.20;99.90
31046;DHT22;17711;54.018;9.300;2023-08-08T06:24:33;16.20;99.90
31046;DHT22;17711;54.018;9.300;2023-08-08T06:27:01;16.20;99.90
31046;DHT22;17711;54.018;9.300;2023-08-08T06:29:29;16.30;99.90
31046;DHT22;17711;54.018;9.300;2023-08-08T06:31:58;16.30;99.90
31046;DHT22;17711;54.018;9.300;2023-08-08T06:34:29;16.30;99.90
31046;DHT22;17711;54.018;9.300;2023-08-08T06:36:57;16.50;99.90
31046;DHT22;17711;54.018;9.300;2023-08-08T06:39:25;16.60;99.90
31046;DHT22;17711;54.018;9.300;2023-08-08T06:41:54;16.70;99.90
31046;DHT22;17711;54.018;9.300;2023-08-08T06:44:22;16.80;99.90
31046;DHT22;17711;54.018;9.300;2023-08-08T06:46:50;16.80;99.90
31046;DHT22;17711;54.018;9.300;2023-08-08T06:49:19;16.90;99.90
31046;DHT22;17711;54.018;9.300;2023-08-08T06:51:48;17.10;99.90
31046;DHT22;17711;54.018;9.300;2023-08-08T06:54:17;17.00;99.90
31046;DHT22;17711;54.018;9.300;2023-08-08T06:56:45;17.00;99.90
31046;DHT22;17711;54.018;9.300;2023-08-08T06:59:14;17.10;99.90
31046;DHT22;17711;54.018;9.300;2023-08-08T07:01:42;17.30;99.90
31046;DHT22;17711;54.018;9.300;2023-08-08T07:04:10;17.30;99.90
31046;DHT22;17711;54.018;9.300;2023-08-08T07:06:40;17.40;99.90
31046;DHT22;17711;54.018;9.300;2023-08-08T07:09:10;17.40;99.90
31046;DHT22;17711;54.018;9.300;2023-08-08T07:11:38;17.60;99.90
31046;DHT22;17711;54.018;9.300;2023-08-08T07:14:06;17.70;99.90
31046;DHT22;17711;54.018;9.300;2023-08-08T07:16:35;17.80;99.90
31046;DHT22;17711;54.018;9.300;2023-08-08T07:19:03;17.90;99.90
31046;DHT22;17711;54.018;9.300;2023-08-08T07:21:33;18.10;99.90
31046;DHT22;17711;54.018;9.300;2023-08-08T07:24:01;18.30;99.90
31046;DHT22;17711;54.018;9.300;2023-08-08T07:26:31;18.20;99.90
31046;DHT22;17711;54.018;9.300;2023-08-08T07:28:59;18.30;99.90
31046;DHT22;17711;54.018;9.300;2023-08-08T07:31:28;18.10;99.90
31046;DHT22;17711;54.018;9.300;2023-08-08T07:33:56;18.10;99.90
31046;DHT22;17711;54.018;9.300;2023-08-08T07:36:25;18.40;99.90
31046;DHT22;17711;54.018;9.300;2023-08-08T07:38:53;18.60;99.90
31046;DHT22;17711;54.018;9.300;2023-08-08T07:41:26;18.80;99.90
31046;DHT22;17711;54.018;9.300;2023-08-08T07:43:56;18.90;99.90
31046;DHT22;17711;54.018;9.300;2023-08-08T07:46:24;18.70;99.90
31046;DHT22;17711;54.018;9.300;2023-08-08T07:48:53;18.60;99.90
31046;DHT22;17711;54.018;9.300;2023-08-08T07:51:21;18.70;99.90
31046;DHT22;17711;54.018;9.300;2023-08-08T07:53:50;18.80;99.90
31046;DHT22;17711;54.018;9.300;2023-08-08T07:56:18;18.70;99.90
31046;DHT22;17711;54.018;9.300;2023-08-08T07:58:47;18.70;99.90
31046;DHT22;17711;54.018;9.300;2023-08-08T08:01:17;18.80;99.90
31046;DHT22;17711;54.018;9.300;2023-08-08T08:03:46;19.00;99.90
31046;DHT22;17711;54.018;9.300;2023-08-08T08:06:14;19.30;99.90
31046;DHT22;17711;54.018;9.300;2023-08-08T08:08:42;19.40;99.90
31046;DHT22;17711;54.018;9.300;2023-08-08T08:11:11;19.50;99.90
31046;DHT22;17711;54.018;9.300;2023-08-08T08:13:40;19.40;99.90
31046;DHT22;17711;54.018;9.300;2023-08-08T08:16:08;19.30;99.90
31046;DHT22;17711;54.018;9.300;2023-08-08T08:18:38;19.10;99.90
31046;DHT22;17711;54.018;9.300;2023-08-08T08:21:06;19.00;99.90
31046;DHT22;17711;54.018;9.300;2023-08-08T08:23:34;18.90;99.90
31046;DHT22;17711;54.018;9.300;2023-08-08T08:26:03;19.00;99.90
31046;DHT22;17711;54.018;9.300;2023-08-08T08:28:31;19.20;99.90
31046;DHT22;17711;54.018;9.300;2023-08-08T08:31:03;19.10;99.90
31046;DHT22;17711;54.018;9.300;2023-08-08T08:33:31;18.90;99.90
31046;DHT22;17711;54.018;9.300;2023-08-08T08:36:01;18.70;99.90
31046;DHT22;17711;54.018;9.300;2023-08-08T08:38:30;18.50;99.90
31046;DHT22;17711;54.018;9.300;2023-08-08T08:40:58;18.40;99.90
31046;DHT22;17711;54.018;9.300;2023-08-08T08:43:27;18.40;99.90
31046;DHT22;17711;54.018;9.300;2023-08-08T08:45:55;19.20;99.90
31046;DHT22;17711;54.018;9.300;2023-08-08T08:48:26;19.90;99.90
31046;DHT22;17711;54.018;9.300;2023-08-08T08:50:55;20.60;99.90
31046;DHT22;17711;54.018;9.300;2023-08-08T08:53:26;21.00;99.90
31046;DHT22;17711;54.018;9.300;2023-08-08T08:55:55;20.70;99.90
31046;DHT22;17711;54.018;9.300;2023-08-08T08:58:24;20.60;99.90
31046;DHT22;17711;54.018;9.300;2023-08-08T09:00:52;20.90;99.90
31046;DHT22;17711;54.018;9.300;2023-08-08T09:03:21;20.60;99.90
31046;DHT22;17711;54.018;9.300;2023-08-08T09:05:49;20.10;99.90
31046;DHT22;17711;54.018;9.300;2023-08-08T09:08:19;19.70;99.90
31046;DHT22;17711;54.018;9.300;2023-08-08T09:10:48;19.40;99.90
31046;DHT22;17711;54.018;9.300;2023-08-08T09:13:17;18.80;99.90
31046;DHT22;17711;54.018;9.300;2023-08-08T09:15:47;18.30;99.90
31046;DHT22;17711;54.018;9.300;2023-08-08T09:18:16;18.00;99.90
31046;DHT22;17711;54.018;9.300;2023-08-08T09:20:47;18.10;99.90
31046;DHT22;17711;54.018;9.300;2023-08-08T09:23:15;19.10;99.90
31046;DHT22;17711;54.018;9.300;2023-08-08T09:25:43;21.00;99.90
31046;DHT22;17711;54.018;9.300;2023-08-08T09:28:13;21.60;99.90
31046;DHT22;17711;54.018;9.300;2023-08-08T09:30:41;21.00;99.90
31046;DHT22;17711;54.018;9.300;2023-08-08T09:33:11;21.00;99.90
31046;DHT22;17711;54.018;9.300;2023-08-08T09:35:39;20.90;99.90
31046;DHT22;17711;54.018;9.300;2023-08-08T09:38:07;20.80;99.90
31046;DHT22;17711;54.018;9.300;2023-08-08T09:40:37;22.10;99.90
31046;DHT22;17711;54.018;9.300;2023-08-08T09:43:06;22.90;99.90
31046;DHT22;17711;54.018;9.300;2023-08-08T09:45:37;23.50;99.90
31046;DHT22;17711;54.018;9.300;2023-08-08T09:48:06;23.60;99.90
31046;DHT22;17711;54.018;9.300;2023-08-08T09:50:35;23.60;99.90
31046;DHT22;17711;54.018;9.300;2023-08-08T09:53:03;22.50;99.90
31046;DHT22;17711;54.018;9.300;2023-08-08T09:55:32;22.20;99.90
31046;DHT22;17711;54.018;9.300;2023-08-08T09:58:01;22.70;99.90
31046;DHT22;17711;54.018;9.300;2023-08-08T10:00:30;23.30;99.90
31046;DHT22;17711;54.018;9.300;2023-08-08T10:03:02;22.60;99.90
31046;DHT22;17711;54.018;9.300;2023-08-08T10:05:31;21.60;99.90
31046;DHT22;17711;54.018;9.300;2023-08-08T10:07:59;21.40;99.90
31046;DHT22;17711;54.018;9.300;2023-08-08T10:10:28;23.00;99.90
31046;DHT22;17711;54.018;9.300;2023-08-08T10:12:57;23.90;99.90
31046;DHT22;17711;54.018;9.300;2023-08-08T10:15:27;23.90;99.90
31046;DHT22;17711;54.018;9.300;2023-08-08T10:17:55;24.20;99.90
31046;DHT22;17711;54.018;9.300;2023-08-08T10:20:25;23.60;93.00
31046;DHT22;17711;54.018;9.300;2023-08-08T10:22:54;23.30;94.90
31046;DHT22;17711;54.018;9.300;2023-08-08T10:25:26;24.60;89.00
31046;DHT22;17711;54.018;9.300;2023-08-08T10:28:01;24.60;73.80
31046;DHT22;17711;54.018;9.300;2023-08-08T10:30:52;23.40;75.70
31046;DHT22;17711;54.018;9.300;2023-08-08T10:33:21;22.50;99.90
31046;DHT22;17711;54.018;9.300;2023-08-08T10:36:00;22.20;99.90
31046;DHT22;17711;54.018;9.300;2023-08-08T10:38:39;23.20;99.90
31046;DHT22;17711;54.018;9.300;2023-08-08T10:41:10;23.20;95.60
31046;DHT22;17711;54.018;9.300;2023-08-08T10:43:46;22.80;99.90
31046;DHT22;17711;54.018;9.300;2023-08-08T10:46:14;22.80;99.90
31046;DHT22;17711;54.018;9.300;2023-08-08T10:48:51;22.80;99.90
31046;DHT22;17711;54.018;9.300;2023-08-08T10:51:21;23.80;99.90
31046;DHT22;17711;54.018;9.300;2023-08-08T10:53:50;25.60;79.20
31046;DHT22;17711;54.018;9.300;2023-08-08T10:56:19;25.90;60.90
31046;DHT22;17711;54.018;9.300;2023-08-08T10:58:48;25.10;58.40
31046;DHT22;17711;54.018;9.300;2023-08-08T11:01:16;25.70;63.60
31046;DHT22;17711;54.018;9.300;2023-08-08T11:03:45;25.50;67.00
31046;DHT22;17711;54.018;9.300;2023-08-08T11:06:16;24.30;65.20
31046;DHT22;17711;54.018;9.300;2023-08-08T11:08:46;23.70;72.50
31046;DHT22;17711;54.018;9.300;2023-08-08T11:11:14;24.20;76.30
31046;DHT22;17711;54.018;9.300;2023-08-08T11:13:44;24.20;68.90
31046;DHT22;17711;54.018;9.300;2023-08-08T11:16:14;23.70;73.70
31046;DHT22;17711;54.018;9.300;2023-08-08T11:18:43;23.10;68.20
31046;DHT22;17711;54.018;9.300;2023-08-08T11:21:11;22.60;68.90
31046;DHT22;17711;54.018;9.300;2023-08-08T11:23:47;22.50;82.20
31046;DHT22;17711;54.018;9.300;2023-08-08T11:26:17;22.60;93.00
31046;DHT22;17711;54.018;9.300;2023-08-08T11:28:49;23.10;84.40
31046;DHT22;17711;54.018;9.300;2023-08-08T11:31:18;23.20;80.30
31046;DHT22;17711;54.018;9.300;2023-08-08T11:33:47;23.40;81.60
31046;DHT22;17711;54.018;9.300;2023-08-08T11:36:16;23.00;89.80
31046;DHT22;17711;54.018;9.300;2023-08-08T11:38:44;22.80;96.70
31046;DHT22;17711;54.018;9.300;2023-08-08T11:41:15;22.50;99.90
31046;DHT22;17711;54.018;9.300;2023-08-08T11:43:43;22.70;93.30
31046;DHT22;17711;54.018;9.300;2023-08-08T11:46:13;22.50;92.60
31046;DHT22;17711;54.018;9.300;2023-08-08T11:48:42;22.20;95.70
31046;DHT22;17711;54.018;9.300;2023-08-08T11:51:10;22.20;99.90
31046;DHT22;17711;54.018;9.300;2023-08-08T11:53:47;22.10;99.90
31046;DHT22;17711;54.018;9.300;2023-08-08T11:56:17;22.00;99.90
31046;DHT22;17711;54.018;9.300;2023-08-08T11:58:45;21.70;99.90
31046;DHT22;17711;54.018;9.300;2023-08-08T12:01:14;21.60;99.90
31046;DHT22;17711;54.018;9.300;2023-08-08T12:03:42;21.60;99.90
31046;DHT22;17711;54.018;9.300;2023-08-08T12:06:11;21.30;99.90
31046;DHT22;17711;54.018;9.300;2023-08-08T12:08:40;21.00;99.90
31046;DHT22;17711;54.018;9.300;2023-08-08T12:11:11;20.70;99.90
31046;DHT22;17711;54.018;9.300;2023-08-08T12:13:41;20.30;99.90
31046;DHT22;17711;54.018;9.300;2023-08-08T12:16:11;20.20;99.90
31046;DHT22;17711;54.018;9.300;2023-08-08T12:18:44;20.40;99.90
31046;DHT22;17711;54.018;9.300;2023-08-08T12:21:12;20.70;99.90
31046;DHT22;17711;54.018;9.300;2023-08-08T12:23:40;21.00;99.90
31046;DHT22;17711;54.018;9.300;2023-08-08T12:26:09;20.80;99.90
31046;DHT22;17711;54.018;9.300;2023-08-08T12:28:37;20.50;99.90
31046;DHT22;17711;54.018;9.300;2023-08-08T12:31:07;20.20;99.90
31046;DHT22;17711;54.018;9.300;2023-08-08T12:33:35;20.00;99.90
31046;DHT22;17711;54.018;9.300;2023-08-08T12:36:04;19.90;99.90
31046;DHT22;17711;54.018;9.300;2023-08-08T12:38:33;19.80;99.90
31046;DHT22;17711;54.018;9.300;2023-08-08T12:41:01;19.90;99.90
31046;DHT22;17711;54.018;9.300;2023-08-08T12:43:30;20.60;99.90
31046;DHT22;17711;54.018;9.300;2023-08-08T12:46:01;21.90;99.90
31046;DHT22;17711;54.018;9.300;2023-08-08T12:48:31;22.40;99.90
31046;DHT22;17711;54.018;9.300;2023-08-08T12:50:59;23.30;99.90
31046;DHT22;17711;54.018;9.300;2023-08-08T12:53:27;23.00;91.40
31046;DHT22;17711;54.018;9.300;2023-08-08T12:55:56;23.00;93.20
31046;DHT22;17711;54.018;9.300;2023-08-08T12:58:24;23.30;90.70
31046;DHT22;17711;54.018;9.300;2023-08-08T13:00:53;22.30;96.60
31046;DHT22;17711;54.018;9.300;2023-08-08T13:03:21;21.80;99.90
31046;DHT22;17711;54.018;9.300;2023-08-08T13:05:51;22.40;99.90
31046;DHT22;17711;54.018;9.300;2023-08-08T13:08:20;22.80;99.90
31046;DHT22;17711;54.018;9.300;2023-08-08T13:10:48;23.00;97.90
31046;DHT22;17711;54.018;9.300;2023-08-08T13:13:17;22.10;99.90
31046;DHT22;17711;54.018;9.300;2023-08-08T13:15:45;21.70;99.90
31046;DHT22;17711;54.018;9.300;2023-08-08T13:18:14;21.60;99.90
31046;DHT22;17711;54.018;9.300;2023-08-08T13:20:42;21.20;99.90
31046;DHT22;17711;54.018;9.300;2023-08-08T13:23:12;20.90;99.90
31046;DHT22;17711;54.018;9.300;2023-08-08T13:25:40;20.70;99.90
31046;DHT22;17711;54.018;9.300;2023-08-08T13:28:09;20.50;99.90
31046;DHT22;17711;54.018;9.300;2023-08-08T13:30:37;20.50;99.90
31046;DHT22;17711;54.018;9.300;2023-08-08T13:33:05;20.40;99.90
31046;DHT22;17711;54.018;9.300;2023-08-08T13:35:34;20.50;99.90
31046;DHT22;17711;54.018;9.300;2023-08-08T13:38:02;20.70;99.90
31046;DHT22;17711;54.018;9.300;2023-08-08T13:40:32;21.50;99.90
31046;DHT22;17711;54.018;9.300;2023-08-08T13:43:01;23.20;99.40
31046;DHT22;17711;54.018;9.300;2023-08-08T13:45:29;24.70;79.70
31046;DHT22;17711;54.018;9.300;2023-08-08T13:47:58;25.10;68.90
31046;DHT22;17711;54.018;9.300;2023-08-08T13:50:27;24.20;62.80
31046;DHT22;17711;54.018;9.300;2023-08-08T13:52:55;23.10;71.70
31046;DHT22;17711;54.018;9.300;2023-08-08T13:55:23;22.60;90.60
31046;DHT22;17711;54.018;9.300;2023-08-08T13:57:54;22.50;98.90
31046;DHT22;17711;54.018;9.300;2023-08-08T14:00:24;21.80;99.90
31046;DHT22;17711;54.018;9.300;2023-08-08T14:02:53;21.00;99.90
31046;DHT22;17711;54.018;9.300;2023-08-08T14:05:22;20.40;99.90
31046;DHT22;17711;54.018;9.300;2023-08-08T14:07:50;20.20;99.90
31046;DHT22;17711;54.018;9.300;2023-08-08T14:10:19;20.00;99.90
31046;DHT22;17711;54.018;9.300;2023-08-08T14:12:47;20.00;99.90
31046;DHT22;17711;54.018;9.300;2023-08-08T14:15:17;20.20;99.90
31046;DHT22;17711;54.018;9.300;2023-08-08T14:17:45;20.60;99.90
31046;DHT22;17711;54.018;9.300;2023-08-08T14:20:14;20.50;99.90
31046;DHT22;17711;54.018;9.300;2023-08-08T14:22:44;20.40;99.90
31046;DHT22;17711;54.018;9.300;2023-08-08T14:25:12;20.10;99.90
31046;DHT22;17711;54.018;9.300;2023-08-08T14:27:40;20.00;99.90
31046;DHT22;17711;54.018;9.300;2023-08-08T14:30:09;20.00;99.90
31046;DHT22;17711;54.018;9.300;2023-08-08T14:32:39;20.00;99.90
31046;DHT22;17711;54.018;9.300;2023-08-08T14:35:08;19.80;99.90
31046;DHT22;17711;54.018;9.300;2023-08-08T14:37:37;19.80;99.90
31046;DHT22;17711;54.018;9.300;2023-08-08T14:40:06;20.00;99.90
31046;DHT22;17711;54.018;9.300;2023-08-08T14:42:38;20.20;99.90
31046;DHT22;17711;54.018;9.300;2023-08-08T14:45:06;20.50;99.90
31046;DHT22;17711;54.018;9.300;2023-08-08T14:47:35;20.70;99.90
31046;DHT22;17711;54.018;9.300;2023-08-08T14:50:06;20.90;99.90
31046;DHT22;17711;54.018;9.300;2023-08-08T14:52:35;20.70;99.90
31046;DHT22;17711;54.018;9.300;2023-08-08T14:55:03;20.40;99.90
31046;DHT22;17711;54.018;9.300;2023-08-08T14:57:32;20.20;99.90
31046;DHT22;17711;54.018;9.300;2023-08-08T15:00:00;20.20;99.90
31046;DHT22;17711;54.018;9.300;2023-08-08T15:02:29;19.90;99.90
31046;DHT22;17711;54.018;9.300;2023-08-08T15:04:57;19.40;99.90
31046;DHT22;17711;54.018;9.300;2023-08-08T15:07:27;18.90;99.90
31046;DHT22;17711;54.018;9.300;2023-08-08T15:09:56;18.40;99.90
31046;DHT22;17711;54.018;9.300;2023-08-08T15:12:24;18.10;99.90
31046;DHT22;17711;54.018;9.300;2023-08-08T15:14:52;18.20;99.90
31046;DHT22;17711;54.018;9.300;2023-08-08T15:17:21;18.20;99.90
31046;DHT22;17711;54.018;9.300;2023-08-08T15:19:51;18.30;99.90
31046;DHT22;17711;54.018;9.300;2023-08-08T15:22:19;19.80;99.90
31046;DHT22;17711;54.018;9.300;2023-08-08T15:24:49;20.10;99.90
31046;DHT22;17711;54.018;9.300;2023-08-08T15:27:17;19.90;99.90
31046;DHT22;17711;54.018;9.300;2023-08-08T15:29:45;19.80;99.90
31046;DHT22;17711;54.018;9.300;2023-08-08T15:32:14;19.40;99.90
31046;DHT22;17711;54.018;9.300;2023-08-08T15:34:42;19.20;99.90
31046;DHT22;17711;54.018;9.300;2023-08-08T15:37:11;19.00;99.90
31046;DHT22;17711;54.018;9.300;2023-08-08T15:39:40;18.70;99.90
31046;DHT22;17711;54.018;9.300;2023-08-08T15:42:10;18.50;99.90